Time;durP1;ratioP1;P1;durP2;ratioP2;P2;SDS_P1;SDS_P2;PMS_P1;PMS_P2;Temp;Humidity;BMP_temperature;BMP_pressure;BME280_temperature;BME280_humidity;BME280_pressure;Samples;Min_cycle;Max_cycle;Signal;HPM_P1;HPM_P2
2021/10/07 00:01:13;;;;;;;447.30;44.03;;;;;;;;;;5056150;28;20058;-87
2021/10/07 00:03:39;;;;;;;415.33;42.42;;;;;;;;;;5061374;28;20029;-87
2021/10/07 00:06:04;;;;;;;467.45;44.47;;;;;;;;;;5054763;28;20111;-87
2021/10/07 00:08:29;;;;;;;407.88;43.28;;;;;;;;;;5052898;28;20395;-87
2021/10/07 00:10:55;;;;;;;468.52;46.00;;;;;;;;;;5052390;28;20472;-86
2021/10/07 00:13:20;;;;;;;402.05;44.10;;;;;;;;;;5052375;28;20037;-87
2021/10/07 00:15:45;;;;;;;404.98;44.72;;;;;;;;;;5054800;28;20060;-87
2021/10/07 00:18:11;;;;;;;486.67;47.53;;;;;;;;;;5053455;28;20013;-87
2021/10/07 00:20:36;;;;;;;447.35;46.30;;;;;;;;;;5053994;28;20388;-88
2021/10/07 00:23:02;;;;;;;423.42;46.63;;;;;;;;;;5057651;28;20025;-88
2021/10/07 00:25:27;;;;;;;409.10;47.80;;;;;;;;;;5056676;28;20025;-88
2021/10/07 00:27:58;;;;;;;427.02;48.47;;;;;;;;;;5054346;28;20104;-88
2021/10/07 00:30:23;;;;;;;410.13;46.63;;;;;;;;;;5053424;28;20488;-88
2021/10/07 00:32:55;;;;;;;436.30;49.17;;;;;;;;;;5053332;28;20040;-88
2021/10/07 00:40:41;;;;;;;432.80;49.10;;;;;;;;;;5051368;28;20028;-88
2021/10/07 00:43:07;;;;;;;426.17;48.42;;;;;;;;;;5054245;28;20033;-88
2021/10/07 00:45:33;;;;;;;408.70;45.38;;;;;;;;;;5053324;28;20128;-88
2021/10/07 00:47:58;;;;;;;373.02;45.15;;;;;;;;;;5054268;28;20053;-88
2021/10/07 00:50:23;;;;;;;329.88;44.00;;;;;;;;;;5053990;28;20037;-88
2021/10/07 00:52:49;;;;;;;346.52;45.72;;;;;;;;;;5052997;28;20434;-88
2021/10/07 00:55:14;;;;;;;269.35;45.67;;;;;;;;;;5052686;28;20024;-88
2021/10/07 00:57:41;;;;;;;254.68;43.40;;;;;;;;;;5050064;28;20036;-87
2021/10/07 01:00:07;;;;;;;265.70;43.65;;;;;;;;;;5051690;28;20555;-88
2021/10/07 01:02:32;;;;;;;270.92;43.20;;;;;;;;;;5052822;28;20507;-88
2021/10/07 01:04:58;;;;;;;271.15;45.42;;;;;;;;;;5052887;28;20017;-88
2021/10/07 01:07:23;;;;;;;276.35;44.90;;;;;;;;;;5054029;28;20494;-87
2021/10/07 01:09:48;;;;;;;268.30;43.42;;;;;;;;;;5055684;28;20024;-88
2021/10/07 01:12:14;;;;;;;288.42;45.15;;;;;;;;;;5058533;28;20051;-87
2021/10/07 01:14:52;;;;;;;291.33;45.17;;;;;;;;;;5055455;28;20025;-87
2021/10/07 01:17:23;;;;;;;289.30;43.47;;;;;;;;;;5053988;28;20025;-87
2021/10/07 01:19:50;;;;;;;321.83;43.92;;;;;;;;;;5052198;28;20025;-87
2021/10/07 01:22:17;;;;;;;297.88;43.47;;;;;;;;;;5049862;28;20472;-87
2021/10/07 01:24:43;;;;;;;317.77;45.88;;;;;;;;;;5051130;28;20025;-88
2021/10/07 01:27:09;;;;;;;330.73;44.72;;;;;;;;;;5052625;28;20088;-87
2021/10/07 01:29:35;;;;;;;370.88;44.55;;;;;;;;;;5052807;28;20045;-88
2021/10/07 01:32:03;;;;;;;361.33;45.72;;;;;;;;;;5052197;28;20119;-87
2021/10/07 01:34:30;;;;;;;377.67;48.50;;;;;;;;;;5053111;28;20044;-87
2021/10/07 01:36:56;;;;;;;371.02;46.45;;;;;;;;;;5052479;28;20025;-87
2021/10/07 01:39:22;;;;;;;396.10;47.20;;;;;;;;;;5052430;28;20502;-87
2021/10/07 01:41:48;;;;;;;397.52;45.88;;;;;;;;;;5052400;28;20128;-88
2021/10/07 01:44:16;;;;;;;368.58;45.10;;;;;;;;;;5052185;28;20455;-87
2021/10/07 01:46:41;;;;;;;385.63;44.45;;;;;;;;;;5049723;28;20057;-88
2021/10/07 01:49:07;;;;;;;340.67;44.58;;;;;;;;;;5049545;28;20492;-87
2021/10/07 01:51:34;;;;;;;408.50;44.33;;;;;;;;;;5046677;28;20041;-88
2021/10/07 01:54:00;;;;;;;366.75;44.05;;;;;;;;;;5060753;28;20392;-88
2021/10/07 01:56:26;;;;;;;363.58;42.40;;;;;;;;;;5055305;28;20412;-88
2021/10/07 01:58:51;;;;;;;344.95;42.40;;;;;;;;;;5053029;28;20029;-88
2021/10/07 02:01:17;;;;;;;321.90;42.28;;;;;;;;;;5052341;28;20119;-87
2021/10/07 02:03:42;;;;;;;385.60;42.78;;;;;;;;;;5053653;28;20029;-87
2021/10/07 02:06:07;;;;;;;362.70;43.00;;;;;;;;;;5051772;28;20098;-88
2021/10/07 02:08:33;;;;;;;323.73;41.95;;;;;;;;;;5051871;28;20057;-88
2021/10/07 02:10:58;;;;;;;336.55;43.33;;;;;;;;;;5053325;28;20390;-87
2021/10/07 02:13:23;;;;;;;346.80;42.50;;;;;;;;;;5052008;28;20055;-87
2021/10/07 02:15:49;;;;;;;356.30;43.35;;;;;;;;;;5052116;28;20032;-87
2021/10/07 02:18:14;;;;;;;357.83;41.50;;;;;;;;;;5052032;28;20029;-87
2021/10/07 02:20:39;;;;;;;355.35;42.83;;;;;;;;;;5049957;28;20465;-86
2021/10/07 02:23:05;;;;;;;407.13;43.72;;;;;;;;;;5049835;28;20503;-88
2021/10/07 02:25:30;;;;;;;430.48;44.92;;;;;;;;;;5052034;28;20123;-87
2021/10/07 02:27:56;;;;;;;381.25;43.28;;;;;;;;;;5051817;28;20126;-87
2021/10/07 02:30:21;;;;;;;396.65;44.47;;;;;;;;;;5052668;28;20035;-87
2021/10/07 02:32:46;;;;;;;444.30;44.80;;;;;;;;;;5055909;28;20571;-87
2021/10/07 02:35:13;;;;;;;400.30;44.42;;;;;;;;;;5055783;28;20025;-88
2021/10/07 02:37:38;;;;;;;349.40;44.92;;;;;;;;;;5056932;28;20016;-87
2021/10/07 02:40:04;;;;;;;416.17;46.08;;;;;;;;;;5056844;28;20053;-87
2021/10/07 02:42:30;;;;;;;366.40;43.75;;;;;;;;;;5079943;28;20009;-87
2021/10/07 02:44:55;;;;;;;414.80;45.97;;;;;;;;;;5069016;28;20170;-88
2021/10/07 02:47:21;;;;;;;453.67;49.80;;;;;;;;;;5057946;28;20428;-88
2021/10/07 02:49:46;;;;;;;444.65;43.95;;;;;;;;;;5054695;28;20527;-87
2021/10/07 02:52:11;;;;;;;440.75;44.92;;;;;;;;;;5058861;28;20060;-88
2021/10/07 02:54:37;;;;;;;472.10;48.00;;;;;;;;;;5058922;28;20060;-88
2021/10/07 02:57:02;;;;;;;488.00;48.90;;;;;;;;;;5066356;28;20108;-88
2021/10/07 02:59:27;;;;;;;502.40;45.40;;;;;;;;;;5057653;28;20122;-88
2021/10/07 03:01:53;;;;;;;558.35;45.97;;;;;;;;;;5055290;28;20031;-88
2021/10/07 03:04:18;;;;;;;541.30;47.28;;;;;;;;;;5056237;28;20087;-88
2021/10/07 03:06:43;;;;;;;523.63;49.22;;;;;;;;;;5055090;28;20399;-88
2021/10/07 03:09:09;;;;;;;521.70;46.65;;;;;;;;;;5052087;28;20052;-88
2021/10/07 03:11:34;;;;;;;506.88;49.05;;;;;;;;;;5055583;28;20502;-88
2021/10/07 03:14:00;;;;;;;450.23;45.28;;;;;;;;;;5055699;28;20021;-88
2021/10/07 03:16:25;;;;;;;398.98;45.15;;;;;;;;;;5055569;28;20029;-88
2021/10/07 03:18:50;;;;;;;561.60;48.30;;;;;;;;;;5054912;28;20017;-88
2021/10/07 03:21:16;;;;;;;514.78;47.50;;;;;;;;;;5053165;28;20028;-89
2021/10/07 03:23:41;;;;;;;651.65;48.20;;;;;;;;;;5055032;28;20067;-88
2021/10/07 03:26:07;;;;;;;589.50;46.58;;;;;;;;;;5054772;28;20404;-88
2021/10/07 03:28:32;;;;;;;488.73;45.90;;;;;;;;;;5055187;28;20377;-88
2021/10/07 03:30:57;;;;;;;544.72;46.75;;;;;;;;;;5056129;28;20057;-87
2021/10/07 03:33:23;;;;;;;490.25;47.55;;;;;;;;;;5056465;28;20017;-88
2021/10/07 03:35:48;;;;;;;515.22;43.72;;;;;;;;;;5056004;28;20025;-88
2021/10/07 03:38:13;;;;;;;500.45;45.88;;;;;;;;;;5060943;28;20052;-88
2021/10/07 03:40:39;;;;;;;531.65;41.97;;;;;;;;;;5056320;28;20067;-88
2021/10/07 03:43:04;;;;;;;530.88;44.70;;;;;;;;;;5055794;28;20050;-88
2021/10/07 03:45:30;;;;;;;493.05;42.88;;;;;;;;;;5054308;28;20060;-88
2021/10/07 03:47:56;;;;;;;399.90;43.15;;;;;;;;;;5049523;28;20021;-88
2021/10/07 03:50:21;;;;;;;545.72;47.63;;;;;;;;;;5054514;28;20032;-88
2021/10/07 03:52:47;;;;;;;475.30;45.65;;;;;;;;;;5053088;28;20025;-87
2021/10/07 03:55:12;;;;;;;470.83;45.35;;;;;;;;;;5054598;28;20115;-88
2021/10/07 03:57:38;;;;;;;465.38;43.85;;;;;;;;;;5054559;28;20537;-89
2021/10/07 04:00:06;;;;;;;455.67;43.90;;;;;;;;;;5054387;28;20035;-88
2021/10/07 04:02:32;;;;;;;440.15;44.80;;;;;;;;;;5054254;28;20090;-88
2021/10/07 04:04:57;;;;;;;509.42;49.40;;;;;;;;;;5052957;28;20025;-88
2021/10/07 04:07:22;;;;;;;478.70;43.58;;;;;;;;;;5053744;28;20027;-89
2021/10/07 04:09:48;;;;;;;552.13;46.10;;;;;;;;;;5054370;28;20074;-89
2021/10/07 04:12:13;;;;;;;586.67;50.47;;;;;;;;;;5060504;28;20017;-88
2021/10/07 04:14:38;;;;;;;631.70;49.55;;;;;;;;;;5056269;28;20025;-87
2021/10/07 04:17:04;;;;;;;542.55;46.90;;;;;;;;;;5055585;28;20116;-87
2021/10/07 04:19:29;;;;;;;531.63;48.45;;;;;;;;;;5053150;28;20473;-87
2021/10/07 04:21:55;;;;;;;401.23;46.45;;;;;;;;;;5057490;28;20048;-87
2021/10/07 04:24:20;;;;;;;448.95;45.97;;;;;;;;;;5054484;28;20480;-87
2021/10/07 04:26:45;;;;;;;447.55;46.08;;;;;;;;;;5059391;28;20036;-88
2021/10/07 04:29:11;;;;;;;431.13;43.45;;;;;;;;;;5059704;28;20021;-87
2021/10/07 04:31:38;;;;;;;451.90;44.33;;;;;;;;;;5056262;28;20017;-87
2021/10/07 04:34:03;;;;;;;380.30;44.63;;;;;;;;;;5050969;28;20505;-87
2021/10/07 04:36:29;;;;;;;434.48;42.63;;;;;;;;;;5035818;28;20048;-88
2021/10/07 04:38:54;;;;;;;362.75;39.63;;;;;;;;;;5034226;28;20029;-88
2021/10/07 04:41:20;;;;;;;378.60;37.15;;;;;;;;;;5041842;28;20108;-88
2021/10/07 04:43:45;;;;;;;502.45;40.22;;;;;;;;;;5053081;28;20104;-87
2021/10/07 04:46:10;;;;;;;460.05;40.67;;;;;;;;;;5053144;28;20029;-88
2021/10/07 04:48:36;;;;;;;405.25;38.83;;;;;;;;;;5050735;28;20025;-88
2021/10/07 04:51:02;;;;;;;413.00;40.50;;;;;;;;;;5032496;28;20022;-88
2021/10/07 04:53:27;;;;;;;395.63;38.50;;;;;;;;;;5032735;28;20029;-88
2021/10/07 04:55:56;;;;;;;386.40;39.90;;;;;;;;;;5033641;28;20099;-89
2021/10/07 04:58:22;;;;;;;327.58;36.25;;;;;;;;;;5034734;28;20022;-89
2021/10/07 05:00:48;;;;;;;334.23;38.25;;;;;;;;;;5033872;28;20404;-89
2021/10/07 05:03:13;;;;;;;361.92;36.17;;;;;;;;;;5034893;28;20030;-88
2021/10/07 05:05:38;;;;;;;368.83;41.00;;;;;;;;;;5033903;28;20551;-88
2021/10/07 05:08:05;;;;;;;360.70;36.88;;;;;;;;;;5033292;28;20400;-89
2021/10/07 05:10:31;;;;;;;321.50;37.95;;;;;;;;;;5033919;28;20025;-89
2021/10/07 05:12:56;;;;;;;292.52;36.35;;;;;;;;;;5035511;28;20048;-89
2021/10/07 05:15:22;;;;;;;363.90;38.58;;;;;;;;;;5033320;28;20025;-88
2021/10/07 05:17:48;;;;;;;425.60;36.08;;;;;;;;;;5032630;28;20114;-88
2021/10/07 05:20:13;;;;;;;381.20;34.50;;;;;;;;;;5036828;28;20399;-88
2021/10/07 05:22:39;;;;;;;322.02;35.67;;;;;;;;;;5044107;28;20017;-88
2021/10/07 05:25:05;;;;;;;326.15;33.35;;;;;;;;;;5038955;28;20029;-88
2021/10/07 05:27:30;;;;;;;291.35;30.83;;;;;;;;;;5038222;28;20463;-87
2021/10/07 05:29:56;;;;;;;306.60;32.72;;;;;;;;;;5039405;28;20036;-87
2021/10/07 05:32:21;;;;;;;272.00;32.10;;;;;;;;;;5039078;28;20017;-87
2021/10/07 05:34:46;;;;;;;301.50;31.75;;;;;;;;;;5052299;28;20171;-85
2021/10/07 05:37:12;;;;;;;268.65;29.33;;;;;;;;;;5052250;28;20056;-85
2021/10/07 05:39:37;;;;;;;325.15;32.10;;;;;;;;;;5051949;28;20052;-85
2021/10/07 05:42:03;;;;;;;294.90;29.38;;;;;;;;;;5051883;28;20024;-85
2021/10/07 05:44:28;;;;;;;271.08;30.73;;;;;;;;;;5052255;28;20396;-84
2021/10/07 05:46:53;;;;;;;333.58;32.08;;;;;;;;;;5055018;28;20118;-84
2021/10/07 05:49:19;;;;;;;297.58;33.90;;;;;;;;;;5036413;28;20025;-85
2021/10/07 05:51:45;;;;;;;361.33;37.28;;;;;;;;;;5033946;28;20036;-89
2021/10/07 05:54:10;;;;;;;318.58;35.25;;;;;;;;;;5038844;28;20452;-89
2021/10/07 05:56:36;;;;;;;358.00;39.88;;;;;;;;;;5036758;28;20049;-89
2021/10/07 05:59:01;;;;;;;316.20;36.92;;;;;;;;;;5036782;28;20021;-89
2021/10/07 06:01:26;;;;;;;373.25;38.35;;;;;;;;;;5038590;28;20079;-89
2021/10/07 06:03:52;;;;;;;325.60;39.67;;;;;;;;;;5043180;28;20037;-89
2021/10/07 06:06:17;;;;;;;322.27;36.85;;;;;;;;;;5060622;28;20029;-89
2021/10/07 06:08:42;;;;;;;321.83;40.15;;;;;;;;;;5058744;28;20021;-89
2021/10/07 06:11:08;;;;;;;320.98;42.63;;;;;;;;;;5059815;28;20503;-89
2021/10/07 06:13:33;;;;;;;365.73;59.55;;;;;;;;;;5059329;28;20108;-88
2021/10/07 06:15:59;;;;;;;331.00;43.85;;;;;;;;;;5057208;28;20028;-88
2021/10/07 06:18:24;;;;;;;338.27;40.63;;;;;;;;;;5058732;28;20027;-89
2021/10/07 06:20:50;;;;;;;314.75;40.20;;;;;;;;;;5060469;28;20476;-89
2021/10/07 06:23:15;;;;;;;315.58;40.17;;;;;;;;;;5057455;28;20029;-88
2021/10/07 06:25:41;;;;;;;314.38;46.90;;;;;;;;;;5057545;28;20108;-88
2021/10/07 06:28:07;;;;;;;310.27;37.85;;;;;;;;;;5060249;28;20118;-87
2021/10/07 06:30:33;;;;;;;239.13;34.90;;;;;;;;;;5066421;28;20071;-87
2021/10/07 06:32:59;;;;;;;264.83;34.05;;;;;;;;;;5058505;28;20024;-88
2021/10/07 06:35:26;;;;;;;250.45;34.65;;;;;;;;;;5058342;28;20381;-86
2021/10/07 06:37:52;;;;;;;236.00;30.67;;;;;;;;;;5058548;28;20049;-88
2021/10/07 06:40:17;;;;;;;233.32;31.63;;;;;;;;;;5055151;28;20033;-88
2021/10/07 06:42:43;;;;;;;220.75;29.98;;;;;;;;;;5036690;28;20032;-87
2021/10/07 06:45:10;;;;;;;223.25;28.08;;;;;;;;;;5037689;28;20025;-88
2021/10/07 06:47:38;;;;;;;262.52;29.95;;;;;;;;;;5040138;28;20409;-89
2021/10/07 06:50:06;;;;;;;214.38;27.70;;;;;;;;;;5039521;28;20021;-89
2021/10/07 06:52:32;;;;;;;202.18;27.08;;;;;;;;;;5039275;28;20029;-88
2021/10/07 06:54:57;;;;;;;199.40;29.23;;;;;;;;;;5039567;28;20031;-88
2021/10/07 06:57:22;;;;;;;236.30;28.77;;;;;;;;;;5043890;28;20125;-89
2021/10/07 06:59:48;;;;;;;196.43;30.95;;;;;;;;;;5042797;28;20111;-88
2021/10/07 07:02:13;;;;;;;209.00;28.63;;;;;;;;;;5044915;28;20037;-88
2021/10/07 07:04:38;;;;;;;186.18;29.08;;;;;;;;;;5060150;28;20025;-89
2021/10/07 07:07:04;;;;;;;159.45;24.77;;;;;;;;;;5056276;28;20037;-87
2021/10/07 07:09:29;;;;;;;193.65;28.25;;;;;;;;;;5044056;28;20078;-87
2021/10/07 07:11:54;;;;;;;197.80;28.20;;;;;;;;;;5044344;28;20120;-86
2021/10/07 07:14:20;;;;;;;192.90;27.02;;;;;;;;;;5041786;28;20030;-88
2021/10/07 07:16:45;;;;;;;191.77;28.17;;;;;;;;;;5040028;28;20029;-88
2021/10/07 07:19:10;;;;;;;194.43;28.80;;;;;;;;;;5044388;28;20017;-86
2021/10/07 07:21:36;;;;;;;196.90;27.98;;;;;;;;;;5048101;28;20112;-87
2021/10/07 07:24:03;;;;;;;185.55;29.38;;;;;;;;;;5052390;28;20024;-88
2021/10/07 07:26:29;;;;;;;168.43;27.75;;;;;;;;;;5054710;28;20490;-89
2021/10/07 07:28:55;;;;;;;181.40;27.70;;;;;;;;;;5054415;28;20064;-88
2021/10/07 07:31:22;;;;;;;189.30;28.42;;;;;;;;;;5054158;28;20036;-88
2021/10/07 07:33:47;;;;;;;207.15;29.00;;;;;;;;;;5054499;28;20032;-88
2021/10/07 07:36:20;;;;;;;205.10;30.13;;;;;;;;;;5056086;28;20029;-87
2021/10/07 07:38:46;;;;;;;;;;;;;;;;;;5057379;28;20013;-88
2021/10/07 07:41:12;;;;;;;186.20;28.90;;;;;;;;;;5059860;28;19908;-88
2021/10/07 07:43:39;;;;;;;170.40;29.65;;;;;;;;;;5058478;28;20025;-88
2021/10/07 07:46:04;;;;;;;193.82;31.15;;;;;;;;;;5056562;28;20036;-89
2021/10/07 07:48:30;;;;;;;236.82;44.22;;;;;;;;;;5055711;28;20453;-87
2021/10/07 07:50:55;;;;;;;229.15;34.20;;;;;;;;;;5058148;28;20029;-89
2021/10/07 07:53:21;;;;;;;227.60;34.60;;;;;;;;;;5057617;28;20021;-89
2021/10/07 07:55:46;;;;;;;280.10;42.33;;;;;;;;;;5055604;28;20507;-89
2021/10/07 07:58:12;;;;;;;363.60;53.63;;;;;;;;;;5057769;28;20021;-89
2021/10/07 08:00:39;;;;;;;218.55;37.17;;;;;;;;;;5056395;28;20025;-88
2021/10/07 08:03:05;;;;;;;239.10;40.70;;;;;;;;;;5053554;28;20072;-90
2021/10/07 08:05:30;;;;;;;188.20;32.47;;;;;;;;;;5051267;28;20021;-89
2021/10/07 08:07:56;;;;;;;229.50;38.17;;;;;;;;;;5055809;28;20485;-90
2021/10/07 08:10:21;;;;;;;346.90;61.78;;;;;;;;;;5042790;28;20047;-88
2021/10/07 08:12:47;;;;;;;177.32;38.75;;;;;;;;;;5047032;28;20025;-89
2021/10/07 08:15:12;;;;;;;185.93;42.10;;;;;;;;;;5034976;28;20021;-89
2021/10/07 08:17:38;;;;;;;162.88;32.78;;;;;;;;;;5056834;28;20043;-87
2021/10/07 08:20:06;;;;;;;163.82;30.27;;;;;;;;;;5076882;28;20036;-89
2021/10/07 08:22:31;;;;;;;153.45;28.02;;;;;;;;;;5061054;28;20111;-86
2021/10/07 08:24:57;;;;;;;182.13;32.70;;;;;;;;;;5055959;28;20048;-89
2021/10/07 08:27:23;;;;;;;180.77;37.63;;;;;;;;;;5056082;28;20072;-89
2021/10/07 08:29:48;;;;;;;183.05;36.95;;;;;;;;;;5055185;28;20024;-88
2021/10/07 08:32:14;;;;;;;175.52;32.95;;;;;;;;;;5055244;28;20432;-89
2021/10/07 08:34:39;;;;;;;187.13;32.33;;;;;;;;;;5052761;28;20056;-88
2021/10/07 08:37:05;;;;;;;204.20;34.30;;;;;;;;;;5056016;28;20064;-87
2021/10/07 08:39:30;;;;;;;210.65;40.15;;;;;;;;;;5067040;28;20029;-89
2021/10/07 08:41:56;;;;;;;197.85;33.03;;;;;;;;;;5055376;28;20032;-87
2021/10/07 08:44:22;;;;;;;202.27;33.75;;;;;;;;;;5052956;28;20396;-88
2021/10/07 08:46:49;;;;;;;204.93;35.25;;;;;;;;;;5058429;28;20029;-88
2021/10/07 08:49:18;;;;;;;193.18;36.22;;;;;;;;;;5055477;28;20542;-88
2021/10/07 08:51:44;;;;;;;180.05;31.65;;;;;;;;;;5052759;28;20024;-89
2021/10/07 08:54:11;;;;;;;159.80;29.48;;;;;;;;;;5053409;28;20035;-88
2021/10/07 08:56:36;;;;;;;170.90;30.15;;;;;;;;;;5052787;28;20033;-87
2021/10/07 08:59:03;;;;;;;173.25;32.00;;;;;;;;;;5055243;28;20013;-88
2021/10/07 09:01:38;;;;;;;167.13;30.15;;;;;;;;;;5043653;28;20025;-87
2021/10/07 09:04:18;;;;;;;154.52;29.70;;;;;;;;;;5032522;28;20033;-87
2021/10/07 09:06:46;;;;;;;153.10;29.55;;;;;;;;;;5034567;28;20033;-87
2021/10/07 09:09:11;;;;;;;149.00;29.20;;;;;;;;;;5033670;28;20071;-88
2021/10/07 09:11:37;;;;;;;119.55;27.05;;;;;;;;;;5034191;28;20112;-88
2021/10/07 09:14:05;;;;;;;116.68;28.10;;;;;;;;;;5032772;28;20064;-88
2021/10/07 09:16:41;;;;;;;113.85;27.48;;;;;;;;;;5036088;28;20018;-88
2021/10/07 09:19:15;;;;;;;100.78;27.55;;;;;;;;;;5041374;28;20093;-87
2021/10/07 09:21:40;;;;;;;92.97;27.92;;;;;;;;;;5053194;28;20127;-89
2021/10/07 09:24:35;;;;;;;90.43;26.73;;;;;;;;;;5054247;28;20048;-89
2021/10/07 09:27:03;;;;;;;74.75;25.42;;;;;;;;;;5054611;28;20024;-88
2021/10/07 09:29:43;;;;;;;84.28;26.15;;;;;;;;;;5053104;28;20021;-89
2021/10/07 09:32:10;;;;;;;93.22;26.33;;;;;;;;;;5052999;28;20025;-87
2021/10/07 09:34:42;;;;;;;67.93;23.42;;;;;;;;;;5052291;28;20017;-87
2021/10/07 09:37:21;;;;;;;72.32;24.88;;;;;;;;;;5052548;28;20032;-86
2021/10/07 09:39:49;;;;;;;65.25;23.67;;;;;;;;;;5051591;28;20031;-86
2021/10/07 09:42:25;;;;;;;84.57;26.08;;;;;;;;;;5052972;28;20067;-86
2021/10/07 09:44:58;;;;;;;81.30;26.42;;;;;;;;;;5052462;28;20024;-87
2021/10/07 09:47:32;;;;;;;71.15;24.63;;;;;;;;;;5052153;28;20037;-87
2021/10/07 09:50:12;;;;;;;69.63;25.30;;;;;;;;;;5053091;28;20024;-87
2021/10/07 09:52:39;;;;;;;75.05;25.92;;;;;;;;;;5052191;28;20024;-87
2021/10/07 09:55:11;;;;;;;61.50;22.85;;;;;;;;;;5051587;28;20028;-87
2021/10/07 09:58:18;;;;;;;59.80;25.88;;;;;;;;;;5053251;28;20021;-86
2021/10/07 10:00:45;;;;;;;57.13;23.33;;;;;;;;;;5051068;28;20037;-86
2021/10/07 10:03:12;;;;;;;62.28;23.20;;;;;;;;;;5051775;28;20040;-87
2021/10/07 10:05:39;;;;;;;61.88;23.85;;;;;;;;;;5052903;28;20033;-88
2021/10/07 10:08:09;;;;;;;56.35;23.38;;;;;;;;;;5051955;28;20033;-86
2021/10/07 10:10:36;;;;;;;55.85;22.33;;;;;;;;;;5053536;28;20048;-87
2021/10/07 10:13:04;;;;;;;53.92;21.27;;;;;;;;;;5052905;28;20028;-87
2021/10/07 10:15:30;;;;;;;49.30;21.17;;;;;;;;;;5053296;28;20029;-87
2021/10/07 10:17:55;;;;;;;44.92;19.98;;;;;;;;;;5056466;28;20052;-88
2021/10/07 10:20:24;;;;;;;44.65;20.40;;;;;;;;;;5056442;28;20025;-89
2021/10/07 10:23:17;;;;;;;44.92;20.73;;;;;;;;;;5056125;28;20024;-88
2021/10/07 10:26:04;;;;;;;52.10;21.00;;;;;;;;;;5055072;28;20032;-89
2021/10/07 10:29:01;;;;;;;43.35;20.25;;;;;;;;;;5056267;28;20036;-87
2021/10/07 10:31:31;;;;;;;54.78;18.50;;;;;;;;;;5057189;28;20033;-88
2021/10/07 10:34:05;;;;;;;51.33;20.10;;;;;;;;;;5066669;28;20025;-88
2021/10/07 10:36:33;;;;;;;48.97;23.00;;;;;;;;;;5057638;28;20025;-86
2021/10/07 10:39:11;;;;;;;51.15;22.50;;;;;;;;;;5057062;28;20036;-88
2021/10/07 10:41:57;;;;;;;47.00;19.20;;;;;;;;;;5057151;28;20025;-86
2021/10/07 10:44:30;;;;;;;45.58;20.02;;;;;;;;;;5055364;28;20021;-87
2021/10/07 10:47:07;;;;;;;48.15;19.98;;;;;;;;;;5060191;28;20029;-87
2021/10/07 10:49:49;;;;;;;45.08;19.23;;;;;;;;;;5048502;28;20029;-89
2021/10/07 10:52:33;;;;;;;42.55;18.83;;;;;;;;;;5037016;28;20025;-87
2021/10/07 10:55:08;;;;;;;47.67;19.75;;;;;;;;;;5050394;28;20029;-87
2021/10/07 10:57:39;;;;;;;40.55;19.30;;;;;;;;;;5059210;28;20032;-88
2021/10/07 11:00:13;;;;;;;38.42;19.17;;;;;;;;;;5056944;28;20029;-87
2021/10/07 11:02:51;;;;;;;42.10;19.42;;;;;;;;;;5064399;28;20089;-88
2021/10/07 11:05:29;;;;;;;38.25;17.67;;;;;;;;;;5063070;28;20032;-87
2021/10/07 11:08:20;;;;;;;37.25;17.75;;;;;;;;;;5060767;28;20033;-89
2021/10/07 11:10:49;;;;;;;57.65;19.52;;;;;;;;;;5061167;28;20476;-89
2021/10/07 11:13:26;;;;;;;41.67;19.65;;;;;;;;;;5062696;28;20266;-88
2021/10/07 11:15:57;;;;;;;32.95;17.88;;;;;;;;;;5056443;28;20024;-87
2021/10/07 11:18:26;;;;;;;34.75;18.25;;;;;;;;;;5046470;28;20024;-88
2021/10/07 11:20:59;;;;;;;34.35;16.63;;;;;;;;;;5041677;28;20021;-87
2021/10/07 11:23:25;;;;;;;39.88;18.90;;;;;;;;;;5041087;28;20025;-87
2021/10/07 11:25:53;;;;;;;35.05;18.20;;;;;;;;;;5043259;28;20449;-87
2021/10/07 11:28:46;;;;;;;33.13;15.35;;;;;;;;;;5048182;28;20026;-88
2021/10/07 11:31:20;;;;;;;34.28;16.33;;;;;;;;;;5039313;28;20037;-88
2021/10/07 11:33:51;;;;;;;28.50;14.27;;;;;;;;;;5040290;28;20029;-88
2021/10/07 11:36:21;;;;;;;38.90;15.10;;;;;;;;;;5040763;28;20022;-89
2021/10/07 11:38:48;;;;;;;31.17;15.05;;;;;;;;;;5042798;28;20021;-90
2021/10/07 11:41:23;;;;;;;30.63;14.68;;;;;;;;;;5050001;28;20108;-89
2021/10/07 11:43:49;;;;;;;30.83;13.98;;;;;;;;;;5055648;28;20377;-91
2021/10/07 11:46:17;;;;;;;29.65;14.20;;;;;;;;;;5056777;28;20039;-89
2021/10/07 11:48:55;;;;;;;35.17;14.68;;;;;;;;;;5057671;28;20025;-89
2021/10/07 11:51:26;;;;;;;29.85;14.48;;;;;;;;;;5055120;28;20029;-90
2021/10/07 11:53:53;;;;;;;29.90;15.15;;;;;;;;;;5057889;28;20035;-89
2021/10/07 11:56:26;;;;;;;33.58;13.88;;;;;;;;;;5055127;28;20488;-89
2021/10/07 11:58:57;;;;;;;37.30;16.95;;;;;;;;;;5053729;28;20021;-88
2021/10/07 12:01:27;;;;;;;37.33;16.38;;;;;;;;;;5053619;28;20032;-89
2021/10/07 12:03:55;;;;;;;40.90;14.55;;;;;;;;;;5053651;28;20037;-87
2021/10/07 12:06:22;;;;;;;31.30;15.60;;;;;;;;;;5053450;28;20491;-89
2021/10/07 12:08:48;;;;;;;29.75;15.23;;;;;;;;;;5058574;28;20028;-89
2021/10/07 12:11:18;;;;;;;46.38;16.17;;;;;;;;;;5056608;28;20093;-88
2021/10/07 12:13:48;;;;;;;35.58;15.30;;;;;;;;;;5056042;28;20024;-86
2021/10/07 12:16:24;;;;;;;33.72;16.77;;;;;;;;;;5056240;28;20025;-89
2021/10/07 12:19:04;;;;;;;35.15;16.98;;;;;;;;;;5055388;28;20381;-87
2021/10/07 12:21:34;;;;;;;33.70;17.10;;;;;;;;;;5058059;28;20036;-88
2021/10/07 12:24:09;;;;;;;39.00;17.77;;;;;;;;;;5055855;28;20032;-86
2021/10/07 12:26:45;;;;;;;37.05;17.95;;;;;;;;;;5055524;28;20017;-88
2021/10/07 12:29:21;;;;;;;33.97;17.38;;;;;;;;;;5056946;28;20032;-87
2021/10/07 12:31:53;;;;;;;39.15;17.20;;;;;;;;;;5055660;28;20123;-87
2021/10/07 12:34:20;;;;;;;34.95;17.00;;;;;;;;;;5056121;28;20082;-89
2021/10/07 12:36:52;;;;;;;37.53;17.77;;;;;;;;;;5054719;28;20029;-88
2021/10/07 12:39:23;;;;;;;38.70;18.40;;;;;;;;;;5064947;28;20012;-89
2021/10/07 12:41:58;;;;;;;41.70;19.83;;;;;;;;;;5060221;28;20503;-89
2021/10/07 12:44:26;;;;;;;38.97;17.58;;;;;;;;;;5055065;28;20029;-89
2021/10/07 12:47:01;;;;;;;38.53;17.77;;;;;;;;;;5055881;28;20025;-90
2021/10/07 12:49:42;;;;;;;49.47;18.23;;;;;;;;;;5058021;28;20032;-88
2021/10/07 12:52:20;;;;;;;35.22;17.58;;;;;;;;;;5055763;28;20033;-88
2021/10/07 12:55:08;;;;;;;30.75;16.27;;;;;;;;;;5054334;28;20028;-88
2021/10/07 12:57:49;;;;;;;34.80;16.85;;;;;;;;;;5053378;28;20013;-88
2021/10/07 13:00:24;;;;;;;34.00;16.67;;;;;;;;;;5053931;28;20052;-88
2021/10/07 13:02:50;;;;;;;31.98;15.82;;;;;;;;;;5055881;28;20056;-89
2021/10/07 13:05:26;;;;;;;37.63;17.08;;;;;;;;;;5053606;28;20025;-87
2021/10/07 13:07:53;;;;;;;29.65;15.75;;;;;;;;;;5052870;28;20104;-87
2021/10/07 13:10:19;;;;;;;36.85;17.10;;;;;;;;;;5052795;28;20025;-86
2021/10/07 13:12:44;;;;;;;30.10;15.07;;;;;;;;;;5053871;28;20035;-86
2021/10/07 13:15:11;;;;;;;26.45;13.85;;;;;;;;;;5054950;28;20023;-89
2021/10/07 13:17:36;;;;;;;28.38;15.55;;;;;;;;;;5057132;28;20014;-87
2021/10/07 13:20:08;;;;;;;34.33;14.48;;;;;;;;;;5035486;28;20024;-88
2021/10/07 13:22:36;;;;;;;31.27;15.23;;;;;;;;;;5036179;28;20113;-88
2021/10/07 13:25:05;;;;;;;29.30;14.93;;;;;;;;;;5035113;28;20754;-88
2021/10/07 13:27:31;;;;;;;34.47;15.35;;;;;;;;;;5037977;28;20026;-88
2021/10/07 13:29:59;;;;;;;31.15;15.02;;;;;;;;;;5033867;28;20035;-89
2021/10/07 13:32:25;;;;;;;28.90;15.07;;;;;;;;;;5033582;28;20033;-89
2021/10/07 13:34:50;;;;;;;31.50;14.55;;;;;;;;;;5033103;28;20370;-88
2021/10/07 13:37:16;;;;;;;35.65;15.07;;;;;;;;;;5046912;28;20032;-90
2021/10/07 13:39:42;;;;;;;27.35;14.95;;;;;;;;;;5053113;28;20017;-88
2021/10/07 13:42:08;;;;;;;31.30;16.38;;;;;;;;;;5060106;28;20561;-87
2021/10/07 13:44:34;;;;;;;30.88;15.20;;;;;;;;;;5069953;28;20024;-88
2021/10/07 13:46:59;;;;;;;27.40;14.23;;;;;;;;;;5054079;28;20031;-88
2021/10/07 13:49:25;;;;;;;30.58;13.48;;;;;;;;;;5054890;28;20033;-88
2021/10/07 13:51:50;;;;;;;34.97;15.80;;;;;;;;;;5054600;28;20028;-89
2021/10/07 13:54:15;;;;;;;28.77;14.75;;;;;;;;;;5053381;28;20076;-89
2021/10/07 13:56:42;;;;;;;25.45;14.05;;;;;;;;;;5055570;28;20021;-87
2021/10/07 13:59:09;;;;;;;25.25;13.45;;;;;;;;;;5053419;28;20029;-89
2021/10/07 14:01:36;;;;;;;26.48;14.30;;;;;;;;;;5054081;28;20499;-88
2021/10/07 14:04:02;;;;;;;32.33;14.73;;;;;;;;;;5050822;28;20021;-88
2021/10/07 14:06:27;;;;;;;26.65;13.90;;;;;;;;;;5052864;28;20035;-90
2021/10/07 14:08:53;;;;;;;22.98;11.77;;;;;;;;;;5056209;28;20154;-90
2021/10/07 14:11:22;;;;;;;23.85;11.73;;;;;;;;;;5056024;28;20121;-87
2021/10/07 14:13:56;;;;;;;24.08;13.18;;;;;;;;;;5055136;28;20033;-87
2021/10/07 14:16:22;;;;;;;28.85;12.48;;;;;;;;;;5059988;28;20090;-88
2021/10/07 14:18:47;;;;;;;21.05;11.27;;;;;;;;;;5062207;28;20025;-88